ARN weather

Stockholm-Arlanda Airport
Stockholm, Stockholms län, Sweden

Public forecast

Using degrees Celsius for public forecast. Weather courtesy of forecast.io.

METAR (pilot weather report)

Retrieved 2018/10/19 08:20 UTC (26 minutes ago):

ESSA 190820Z 27003KT CAVOK 03/02 Q1022 NOSIG

TAF (pilot weather forecast)

Retrieved 2018/10/19 06:33 UTC (2 hours ago):

TAF ESSA 190530Z 1906/2006 26004KT CAVOK